sensor_id;sensor_type;location;lat;lon;timestamp;P1;durP1;ratioP1;P2;durP2;ratioP2
75435;SDS011;64014;53.432;14.534;2023-07-13T00:00:34;4.50;;;2.92;;
75435;SDS011;64014;53.432;14.534;2023-07-13T00:03:01;5.72;;;3.72;;
75435;SDS011;64014;53.432;14.534;2023-07-13T00:05:27;3.85;;;1.75;;
75435;SDS011;64014;53.432;14.534;2023-07-13T00:07:54;5.03;;;2.67;;
75435;SDS011;64014;53.432;14.534;2023-07-13T00:10:20;4.57;;;2.38;;
75435;SDS011;64014;53.432;14.534;2023-07-13T00:12:46;7.43;;;2.83;;
75435;SDS011;64014;53.432;14.534;2023-07-13T00:15:14;5.25;;;2.97;;
75435;SDS011;64014;53.432;14.534;2023-07-13T00:17:41;6.28;;;2.83;;
75435;SDS011;64014;53.432;14.534;2023-07-13T00:20:10;5.63;;;3.50;;
75435;SDS011;64014;53.432;14.534;2023-07-13T00:22:37;4.55;;;3.30;;
75435;SDS011;64014;53.432;14.534;2023-07-13T00:25:03;5.20;;;2.45;;
75435;SDS011;64014;53.432;14.534;2023-07-13T00:27:31;4.40;;;2.88;;
75435;SDS011;64014;53.432;14.534;2023-07-13T00:29:57;6.20;;;3.20;;
75435;SDS011;64014;53.432;14.534;2023-07-13T00:32:24;11.25;;;3.33;;
75435;SDS011;64014;53.432;14.534;2023-07-13T00:34:51;6.82;;;4.45;;
75435;SDS011;64014;53.432;14.534;2023-07-13T00:37:17;13.52;;;11.27;;
75435;SDS011;64014;53.432;14.534;2023-07-13T00:39:44;9.88;;;5.75;;
75435;SDS011;64014;53.432;14.534;2023-07-13T00:42:10;7.10;;;4.68;;
75435;SDS011;64014;53.432;14.534;2023-07-13T00:44:36;6.57;;;3.05;;
75435;SDS011;64014;53.432;14.534;2023-07-13T00:47:04;7.03;;;5.03;;
75435;SDS011;64014;53.432;14.534;2023-07-13T00:49:31;6.82;;;4.63;;
75435;SDS011;64014;53.432;14.534;2023-07-13T00:54:25;6.82;;;3.90;;
75435;SDS011;64014;53.432;14.534;2023-07-13T00:56:53;7.35;;;3.95;;
75435;SDS011;64014;53.432;14.534;2023-07-13T00:59:21;5.25;;;1.92;;
75435;SDS011;64014;53.432;14.534;2023-07-13T01:01:48;4.70;;;3.45;;
75435;SDS011;64014;53.432;14.534;2023-07-13T01:04:15;6.60;;;3.38;;
75435;SDS011;64014;53.432;14.534;2023-07-13T01:06:41;5.20;;;3.08;;
75435;SDS011;64014;53.432;14.534;2023-07-13T01:09:09;8.23;;;3.50;;
75435;SDS011;64014;53.432;14.534;2023-07-13T01:11:35;4.93;;;3.00;;
75435;SDS011;64014;53.432;14.534;2023-07-13T01:14:02;5.93;;;3.28;;
75435;SDS011;64014;53.432;14.534;2023-07-13T01:16:30;5.50;;;3.08;;
75435;SDS011;64014;53.432;14.534;2023-07-13T01:18:56;5.72;;;3.75;;
75435;SDS011;64014;53.432;14.534;2023-07-13T01:21:24;5.68;;;3.80;;
75435;SDS011;64014;53.432;14.534;2023-07-13T01:23:50;6.50;;;4.20;;
75435;SDS011;64014;53.432;14.534;2023-07-13T01:26:16;5.47;;;3.15;;
75435;SDS011;64014;53.432;14.534;2023-07-13T01:28:43;5.18;;;3.08;;
75435;SDS011;64014;53.432;14.534;2023-07-13T01:31:09;5.60;;;2.80;;
75435;SDS011;64014;53.432;14.534;2023-07-13T01:33:39;8.05;;;2.97;;
75435;SDS011;64014;53.432;14.534;2023-07-13T01:36:09;6.95;;;2.75;;
75435;SDS011;64014;53.432;14.534;2023-07-13T01:38:37;5.80;;;2.53;;
75435;SDS011;64014;53.432;14.534;2023-07-13T01:41:03;3.90;;;2.50;;
75435;SDS011;64014;53.432;14.534;2023-07-13T01:43:29;2.88;;;2.03;;
75435;SDS011;64014;53.432;14.534;2023-07-13T01:45:56;6.50;;;2.90;;
75435;SDS011;64014;53.432;14.534;2023-07-13T01:48:22;3.58;;;2.50;;
75435;SDS011;64014;53.432;14.534;2023-07-13T01:50:48;3.65;;;1.00;;
75435;SDS011;64014;53.432;14.534;2023-07-13T01:53:15;2.88;;;1.35;;
75435;SDS011;64014;53.432;14.534;2023-07-13T01:55:41;4.85;;;2.00;;
75435;SDS011;64014;53.432;14.534;2023-07-13T01:58:07;3.72;;;3.05;;
75435;SDS011;64014;53.432;14.534;2023-07-13T02:00:33;4.03;;;2.55;;
75435;SDS011;64014;53.432;14.534;2023-07-13T02:03:00;4.10;;;1.85;;
75435;SDS011;64014;53.432;14.534;2023-07-13T02:05:26;4.50;;;2.10;;
75435;SDS011;64014;53.432;14.534;2023-07-13T02:07:52;3.90;;;2.47;;
75435;SDS011;64014;53.432;14.534;2023-07-13T02:10:18;3.17;;;2.42;;
75435;SDS011;64014;53.432;14.534;2023-07-13T02:12:44;3.00;;;2.42;;
75435;SDS011;64014;53.432;14.534;2023-07-13T02:15:10;4.72;;;2.80;;
75435;SDS011;64014;53.432;14.534;2023-07-13T02:17:36;4.72;;;2.65;;
75435;SDS011;64014;53.432;14.534;2023-07-13T02:20:03;6.03;;;2.85;;
75435;SDS011;64014;53.432;14.534;2023-07-13T02:22:30;3.90;;;2.70;;
75435;SDS011;64014;53.432;14.534;2023-07-13T02:24:56;4.88;;;2.80;;
75435;SDS011;64014;53.432;14.534;2023-07-13T02:27:22;3.05;;;2.58;;
75435;SDS011;64014;53.432;14.534;2023-07-13T02:29:48;5.35;;;2.15;;
75435;SDS011;64014;53.432;14.534;2023-07-13T02:32:16;3.47;;;2.38;;
75435;SDS011;64014;53.432;14.534;2023-07-13T02:34:42;4.22;;;2.38;;
75435;SDS011;64014;53.432;14.534;2023-07-13T02:37:08;5.20;;;3.13;;
75435;SDS011;64014;53.432;14.534;2023-07-13T02:39:35;7.68;;;3.42;;
75435;SDS011;64014;53.432;14.534;2023-07-13T02:42:01;4.72;;;2.60;;
75435;SDS011;64014;53.432;14.534;2023-07-13T02:44:28;4.15;;;2.75;;
75435;SDS011;64014;53.432;14.534;2023-07-13T02:46:54;3.83;;;2.88;;
75435;SDS011;64014;53.432;14.534;2023-07-13T02:49:20;4.05;;;2.65;;
75435;SDS011;64014;53.432;14.534;2023-07-13T02:51:47;6.25;;;2.70;;
75435;SDS011;64014;53.432;14.534;2023-07-13T02:54:13;4.38;;;3.10;;
75435;SDS011;64014;53.432;14.534;2023-07-13T02:56:39;7.50;;;3.28;;
75435;SDS011;64014;53.432;14.534;2023-07-13T02:59:06;4.93;;;2.97;;
75435;SDS011;64014;53.432;14.534;2023-07-13T03:01:32;5.32;;;2.78;;
75435;SDS011;64014;53.432;14.534;2023-07-13T03:04:00;4.93;;;3.80;;
75435;SDS011;64014;53.432;14.534;2023-07-13T03:06:26;5.82;;;1.73;;
75435;SDS011;64014;53.432;14.534;2023-07-13T03:08:55;5.80;;;3.00;;
75435;SDS011;64014;53.432;14.534;2023-07-13T03:11:22;4.82;;;2.53;;
75435;SDS011;64014;53.432;14.534;2023-07-13T03:13:48;6.00;;;2.55;;
75435;SDS011;64014;53.432;14.534;2023-07-13T03:16:14;5.22;;;3.13;;
75435;SDS011;64014;53.432;14.534;2023-07-13T03:18:41;4.45;;;2.67;;
75435;SDS011;64014;53.432;14.534;2023-07-13T03:21:08;5.13;;;2.47;;
75435;SDS011;64014;53.432;14.534;2023-07-13T03:23:34;4.88;;;2.95;;
75435;SDS011;64014;53.432;14.534;2023-07-13T03:26:04;4.72;;;2.75;;
75435;SDS011;64014;53.432;14.534;2023-07-13T03:28:31;5.13;;;2.65;;
75435;SDS011;64014;53.432;14.534;2023-07-13T03:31:04;5.32;;;1.83;;
75435;SDS011;64014;53.432;14.534;2023-07-13T03:33:30;3.80;;;3.17;;
75435;SDS011;64014;53.432;14.534;2023-07-13T03:35:57;7.47;;;2.65;;
75435;SDS011;64014;53.432;14.534;2023-07-13T03:38:23;4.15;;;2.80;;
75435;SDS011;64014;53.432;14.534;2023-07-13T03:40:49;6.72;;;4.05;;
75435;SDS011;64014;53.432;14.534;2023-07-13T03:43:15;4.30;;;3.70;;
75435;SDS011;64014;53.432;14.534;2023-07-13T03:45:41;5.72;;;2.88;;
75435;SDS011;64014;53.432;14.534;2023-07-13T03:48:08;4.30;;;2.95;;
75435;SDS011;64014;53.432;14.534;2023-07-13T03:50:34;5.28;;;2.67;;
75435;SDS011;64014;53.432;14.534;2023-07-13T03:53:00;3.72;;;3.13;;
75435;SDS011;64014;53.432;14.534;2023-07-13T03:55:26;5.68;;;3.10;;
75435;SDS011;64014;53.432;14.534;2023-07-13T03:57:54;4.65;;;3.00;;
75435;SDS011;64014;53.432;14.534;2023-07-13T04:00:23;4.15;;;2.55;;
75435;SDS011;64014;53.432;14.534;2023-07-13T04:02:49;6.57;;;3.08;;
75435;SDS011;64014;53.432;14.534;2023-07-13T04:05:16;5.57;;;2.65;;
75435;SDS011;64014;53.432;14.534;2023-07-13T04:07:42;3.38;;;2.72;;
75435;SDS011;64014;53.432;14.534;2023-07-13T04:10:09;3.90;;;2.47;;
75435;SDS011;64014;53.432;14.534;2023-07-13T04:12:35;4.85;;;2.38;;
75435;SDS011;64014;53.432;14.534;2023-07-13T04:15:01;4.95;;;3.80;;
75435;SDS011;64014;53.432;14.534;2023-07-13T04:17:27;4.75;;;2.15;;
75435;SDS011;64014;53.432;14.534;2023-07-13T04:19:53;6.45;;;2.75;;
75435;SDS011;64014;53.432;14.534;2023-07-13T04:22:20;5.22;;;2.35;;
75435;SDS011;64014;53.432;14.534;2023-07-13T04:24:46;4.05;;;2.78;;
75435;SDS011;64014;53.432;14.534;2023-07-13T04:27:12;3.85;;;1.85;;
75435;SDS011;64014;53.432;14.534;2023-07-13T04:29:38;6.75;;;3.08;;
75435;SDS011;64014;53.432;14.534;2023-07-13T04:32:04;7.15;;;4.88;;
75435;SDS011;64014;53.432;14.534;2023-07-13T04:34:30;9.65;;;6.07;;
75435;SDS011;64014;53.432;14.534;2023-07-13T04:36:56;4.47;;;2.42;;
75435;SDS011;64014;53.432;14.534;2023-07-13T04:39:22;3.92;;;2.47;;
75435;SDS011;64014;53.432;14.534;2023-07-13T04:41:49;4.25;;;2.53;;
75435;SDS011;64014;53.432;14.534;2023-07-13T04:44:15;4.60;;;3.08;;
75435;SDS011;64014;53.432;14.534;2023-07-13T04:46:42;4.25;;;1.73;;
75435;SDS011;64014;53.432;14.534;2023-07-13T04:49:08;3.78;;;2.42;;
75435;SDS011;64014;53.432;14.534;2023-07-13T04:51:34;4.07;;;2.80;;
75435;SDS011;64014;53.432;14.534;2023-07-13T04:54:00;4.25;;;2.20;;
75435;SDS011;64014;53.432;14.534;2023-07-13T04:56:26;5.25;;;2.72;;
75435;SDS011;64014;53.432;14.534;2023-07-13T04:58:52;4.22;;;2.75;;
75435;SDS011;64014;53.432;14.534;2023-07-13T05:01:18;3.17;;;2.22;;
75435;SDS011;64014;53.432;14.534;2023-07-13T05:03:45;5.80;;;3.40;;
75435;SDS011;64014;53.432;14.534;2023-07-13T05:06:11;3.72;;;2.55;;
75435;SDS011;64014;53.432;14.534;2023-07-13T05:08:38;5.85;;;2.83;;
75435;SDS011;64014;53.432;14.534;2023-07-13T05:11:05;3.75;;;2.63;;
75435;SDS011;64014;53.432;14.534;2023-07-13T05:13:32;3.53;;;2.25;;
75435;SDS011;64014;53.432;14.534;2023-07-13T05:15:59;4.20;;;2.00;;
75435;SDS011;64014;53.432;14.534;2023-07-13T05:18:25;4.63;;;2.25;;
75435;SDS011;64014;53.432;14.534;2023-07-13T05:20:58;4.55;;;3.03;;
75435;SDS011;64014;53.432;14.534;2023-07-13T05:23:25;5.93;;;2.13;;
75435;SDS011;64014;53.432;14.534;2023-07-13T05:25:51;7.03;;;2.42;;
75435;SDS011;64014;53.432;14.534;2023-07-13T05:28:17;6.20;;;2.38;;
75435;SDS011;64014;53.432;14.534;2023-07-13T05:30:47;4.85;;;2.22;;
75435;SDS011;64014;53.432;14.534;2023-07-13T05:33:13;5.38;;;3.17;;
75435;SDS011;64014;53.432;14.534;2023-07-13T05:35:39;3.13;;;2.22;;
75435;SDS011;64014;53.432;14.534;2023-07-13T05:38:05;3.92;;;2.05;;
75435;SDS011;64014;53.432;14.534;2023-07-13T05:40:32;4.22;;;1.95;;
75435;SDS011;64014;53.432;14.534;2023-07-13T05:42:58;4.80;;;2.05;;
75435;SDS011;64014;53.432;14.534;2023-07-13T05:45:24;3.63;;;1.70;;
75435;SDS011;64014;53.432;14.534;2023-07-13T05:47:51;4.55;;;1.98;;
75435;SDS011;64014;53.432;14.534;2023-07-13T05:50:17;5.10;;;1.90;;
75435;SDS011;64014;53.432;14.534;2023-07-13T05:52:43;7.05;;;2.72;;
75435;SDS011;64014;53.432;14.534;2023-07-13T05:55:09;4.15;;;1.10;;
75435;SDS011;64014;53.432;14.534;2023-07-13T05:57:35;3.28;;;1.00;;
75435;SDS011;64014;53.432;14.534;2023-07-13T06:00:02;3.70;;;2.17;;
75435;SDS011;64014;53.432;14.534;2023-07-13T06:02:28;5.15;;;1.98;;
75435;SDS011;64014;53.432;14.534;2023-07-13T06:04:54;3.65;;;1.13;;
75435;SDS011;64014;53.432;14.534;2023-07-13T06:07:20;3.90;;;1.55;;
75435;SDS011;64014;53.432;14.534;2023-07-13T06:09:46;3.35;;;1.23;;
75435;SDS011;64014;53.432;14.534;2023-07-13T06:12:12;4.38;;;1.10;;
75435;SDS011;64014;53.432;14.534;2023-07-13T06:14:39;3.22;;;0.77;;
75435;SDS011;64014;53.432;14.534;2023-07-13T06:17:08;3.05;;;1.95;;
75435;SDS011;64014;53.432;14.534;2023-07-13T06:19:34;2.47;;;1.75;;
75435;SDS011;64014;53.432;14.534;2023-07-13T06:22:00;3.78;;;0.70;;
75435;SDS011;64014;53.432;14.534;2023-07-13T06:24:26;3.90;;;1.98;;
75435;SDS011;64014;53.432;14.534;2023-07-13T06:26:53;5.57;;;1.73;;
75435;SDS011;64014;53.432;14.534;2023-07-13T06:29:19;2.22;;;1.30;;
75435;SDS011;64014;53.432;14.534;2023-07-13T06:31:45;6.10;;;1.80;;
75435;SDS011;64014;53.432;14.534;2023-07-13T06:34:11;2.92;;;1.70;;
75435;SDS011;64014;53.432;14.534;2023-07-13T06:36:37;3.35;;;1.35;;
75435;SDS011;64014;53.432;14.534;2023-07-13T06:39:03;2.75;;;1.67;;
75435;SDS011;64014;53.432;14.534;2023-07-13T06:41:30;4.13;;;1.65;;
75435;SDS011;64014;53.432;14.534;2023-07-13T06:43:56;3.10;;;0.93;;
75435;SDS011;64014;53.432;14.534;2023-07-13T06:46:22;3.42;;;1.42;;
75435;SDS011;64014;53.432;14.534;2023-07-13T06:48:51;3.83;;;1.98;;
75435;SDS011;64014;53.432;14.534;2023-07-13T06:51:17;5.00;;;1.77;;
75435;SDS011;64014;53.432;14.534;2023-07-13T06:53:43;3.15;;;0.93;;
75435;SDS011;64014;53.432;14.534;2023-07-13T06:56:10;3.45;;;0.50;;
75435;SDS011;64014;53.432;14.534;2023-07-13T06:58:36;2.95;;;2.00;;
75435;SDS011;64014;53.432;14.534;2023-07-13T07:01:03;3.47;;;0.85;;
75435;SDS011;64014;53.432;14.534;2023-07-13T07:03:30;3.85;;;1.08;;
75435;SDS011;64014;53.432;14.534;2023-07-13T07:06:01;4.05;;;1.90;;
75435;SDS011;64014;53.432;14.534;2023-07-13T07:08:28;4.53;;;2.15;;
75435;SDS011;64014;53.432;14.534;2023-07-13T07:10:54;3.63;;;0.95;;
75435;SDS011;64014;53.432;14.534;2023-07-13T07:13:20;2.97;;;0.63;;
75435;SDS011;64014;53.432;14.534;2023-07-13T07:15:46;2.30;;;0.95;;
75435;SDS011;64014;53.432;14.534;2023-07-13T07:18:12;2.88;;;1.45;;
75435;SDS011;64014;53.432;14.534;2023-07-13T07:20:38;5.68;;;2.53;;
75435;SDS011;64014;53.432;14.534;2023-07-13T07:23:04;2.45;;;0.30;;
75435;SDS011;64014;53.432;14.534;2023-07-13T07:25:30;2.92;;;1.25;;
75435;SDS011;64014;53.432;14.534;2023-07-13T07:27:59;3.05;;;0.80;;
75435;SDS011;64014;53.432;14.534;2023-07-13T07:30:25;2.40;;;0.40;;
75435;SDS011;64014;53.432;14.534;2023-07-13T07:32:51;3.00;;;1.73;;
75435;SDS011;64014;53.432;14.534;2023-07-13T07:35:17;5.63;;;2.03;;
75435;SDS011;64014;53.432;14.534;2023-07-13T07:37:43;3.90;;;1.40;;
75435;SDS011;64014;53.432;14.534;2023-07-13T07:40:10;2.58;;;2.17;;
75435;SDS011;64014;53.432;14.534;2023-07-13T07:42:36;2.20;;;1.25;;
75435;SDS011;64014;53.432;14.534;2023-07-13T07:45:02;2.40;;;0.22;;
75435;SDS011;64014;53.432;14.534;2023-07-13T07:47:28;2.80;;;0.30;;
75435;SDS011;64014;53.432;14.534;2023-07-13T07:49:54;2.60;;;1.33;;
75435;SDS011;64014;53.432;14.534;2023-07-13T07:52:20;6.13;;;3.88;;
75435;SDS011;64014;53.432;14.534;2023-07-13T07:54:47;4.20;;;1.33;;
75435;SDS011;64014;53.432;14.534;2023-07-13T07:57:13;2.88;;;0.43;;
75435;SDS011;64014;53.432;14.534;2023-07-13T07:59:39;2.20;;;0.68;;
75435;SDS011;64014;53.432;14.534;2023-07-13T08:02:05;3.10;;;0.70;;
75435;SDS011;64014;53.432;14.534;2023-07-13T08:04:32;1.63;;;0.52;;
75435;SDS011;64014;53.432;14.534;2023-07-13T08:06:58;3.17;;;0.50;;
75435;SDS011;64014;53.432;14.534;2023-07-13T08:09:24;1.58;;;0.63;;
75435;SDS011;64014;53.432;14.534;2023-07-13T08:11:50;2.08;;;0.93;;
75435;SDS011;64014;53.432;14.534;2023-07-13T08:14:17;2.60;;;0.47;;
75435;SDS011;64014;53.432;14.534;2023-07-13T08:16:43;3.13;;;0.32;;
75435;SDS011;64014;53.432;14.534;2023-07-13T08:19:09;2.58;;;0.30;;
75435;SDS011;64014;53.432;14.534;2023-07-13T08:21:36;3.15;;;1.50;;
75435;SDS011;64014;53.432;14.534;2023-07-13T08:24:02;2.22;;;1.27;;
75435;SDS011;64014;53.432;14.534;2023-07-13T08:26:29;3.40;;;0.95;;
75435;SDS011;64014;53.432;14.534;2023-07-13T08:28:55;2.35;;;0.63;;
75435;SDS011;64014;53.432;14.534;2023-07-13T08:31:21;1.38;;;0.73;;
75435;SDS011;64014;53.432;14.534;2023-07-13T08:33:47;2.30;;;0.75;;
75435;SDS011;64014;53.432;14.534;2023-07-13T08:36:13;2.85;;;0.57;;
75435;SDS011;64014;53.432;14.534;2023-07-13T08:38:39;4.38;;;1.83;;
75435;SDS011;64014;53.432;14.534;2023-07-13T08:41:10;2.90;;;1.38;;
75435;SDS011;64014;53.432;14.534;2023-07-13T08:43:36;2.17;;;0.32;;
75435;SDS011;64014;53.432;14.534;2023-07-13T08:48:40;2.47;;;1.25;;
75435;SDS011;64014;53.432;14.534;2023-07-13T08:53:54;2.45;;;0.60;;
75435;SDS011;64014;53.432;14.534;2023-07-13T08:56:22;2.33;;;1.20;;
75435;SDS011;64014;53.432;14.534;2023-07-13T08:58:53;2.30;;;1.38;;
75435;SDS011;64014;53.432;14.534;2023-07-13T09:01:34;1.88;;;0.90;;
75435;SDS011;64014;53.432;14.534;2023-07-13T09:04:12;2.90;;;1.42;;
75435;SDS011;64014;53.432;14.534;2023-07-13T09:09:33;3.97;;;0.82;;
75435;SDS011;64014;53.432;14.534;2023-07-13T09:14:47;2.40;;;0.75;;
75435;SDS011;64014;53.432;14.534;2023-07-13T09:17:17;2.67;;;1.02;;
75435;SDS011;64014;53.432;14.534;2023-07-13T09:19:43;1.70;;;0.40;;
75435;SDS011;64014;53.432;14.534;2023-07-13T09:22:14;2.78;;;0.50;;
75435;SDS011;64014;53.432;14.534;2023-07-13T09:24:50;3.58;;;0.32;;
75435;SDS011;64014;53.432;14.534;2023-07-13T09:27:22;1.95;;;0.85;;
75435;SDS011;64014;53.432;14.534;2023-07-13T09:29:51;2.72;;;0.63;;
75435;SDS011;64014;53.432;14.534;2023-07-13T09:32:21;3.30;;;1.10;;
75435;SDS011;64014;53.432;14.534;2023-07-13T09:34:52;2.25;;;0.70;;
75435;SDS011;64014;53.432;14.534;2023-07-13T09:37:20;2.78;;;0.32;;
75435;SDS011;64014;53.432;14.534;2023-07-13T09:39:47;5.10;;;0.77;;
75435;SDS011;64014;53.432;14.534;2023-07-13T09:47:18;2.63;;;0.65;;
75435;SDS011;64014;53.432;14.534;2023-07-13T09:49:44;3.25;;;0.50;;
75435;SDS011;64014;53.432;14.534;2023-07-13T09:52:11;1.45;;;0.52;;
75435;SDS011;64014;53.432;14.534;2023-07-13T09:54:39;1.48;;;0.43;;
75435;SDS011;64014;53.432;14.534;2023-07-13T09:57:15;3.17;;;1.08;;
75435;SDS011;64014;53.432;14.534;2023-07-13T09:59:46;3.35;;;0.82;;
75435;SDS011;64014;53.432;14.534;2023-07-13T10:02:26;1.88;;;0.63;;
75435;SDS011;64014;53.432;14.534;2023-07-13T10:04:59;1.23;;;0.55;;
75435;SDS011;64014;53.432;14.534;2023-07-13T10:07:26;1.83;;;0.47;;
75435;SDS011;64014;53.432;14.534;2023-07-13T10:09:53;2.78;;;0.43;;
75435;SDS011;64014;53.432;14.534;2023-07-13T10:12:20;3.40;;;1.17;;
75435;SDS011;64014;53.432;14.534;2023-07-13T10:14:48;3.13;;;0.70;;
75435;SDS011;64014;53.432;14.534;2023-07-13T10:17:16;2.78;;;0.65;;
75435;SDS011;64014;53.432;14.534;2023-07-13T10:19:45;2.33;;;0.85;;
75435;SDS011;64014;53.432;14.534;2023-07-13T10:24:46;2.90;;;0.45;;
75435;SDS011;64014;53.432;14.534;2023-07-13T10:27:14;6.78;;;0.70;;
75435;SDS011;64014;53.432;14.534;2023-07-13T10:30:01;1.90;;;0.63;;
75435;SDS011;64014;53.432;14.534;2023-07-13T10:32:28;4.75;;;1.65;;
75435;SDS011;64014;53.432;14.534;2023-07-13T10:34:54;2.38;;;0.70;;
75435;SDS011;64014;53.432;14.534;2023-07-13T10:37:24;4.35;;;0.65;;
75435;SDS011;64014;53.432;14.534;2023-07-13T10:39:52;5.18;;;0.40;;
75435;SDS011;64014;53.432;14.534;2023-07-13T10:42:23;4.50;;;0.52;;
75435;SDS011;64014;53.432;14.534;2023-07-13T10:44:52;2.00;;;0.70;;
75435;SDS011;64014;53.432;14.534;2023-07-13T10:47:18;2.42;;;0.85;;
75435;SDS011;64014;53.432;14.534;2023-07-13T10:49:44;2.78;;;0.80;;
75435;SDS011;64014;53.432;14.534;2023-07-13T10:54:56;3.22;;;0.73;;
75435;SDS011;64014;53.432;14.534;2023-07-13T10:57:22;4.60;;;0.85;;
75435;SDS011;64014;53.432;14.534;2023-07-13T11:02:29;2.95;;;0.68;;
75435;SDS011;64014;53.432;14.534;2023-07-13T11:04:56;3.47;;;0.50;;
75435;SDS011;64014;53.432;14.534;2023-07-13T11:07:24;2.45;;;0.68;;
75435;SDS011;64014;53.432;14.534;2023-07-13T11:22:45;3.95;;;0.65;;
75435;SDS011;64014;53.432;14.534;2023-07-13T11:30:39;2.58;;;0.60;;
75435;SDS011;64014;53.432;14.534;2023-07-13T11:33:31;5.40;;;0.90;;
75435;SDS011;64014;53.432;14.534;2023-07-13T11:36:14;3.72;;;1.05;;
75435;SDS011;64014;53.432;14.534;2023-07-13T11:43:33;3.88;;;0.93;;
75435;SDS011;64014;53.432;14.534;2023-07-13T11:46:11;5.70;;;0.60;;
75435;SDS011;64014;53.432;14.534;2023-07-13T11:48:37;2.17;;;0.57;;
75435;SDS011;64014;53.432;14.534;2023-07-13T11:51:05;1.73;;;0.47;;
75435;SDS011;64014;53.432;14.534;2023-07-13T11:53:50;3.17;;;0.88;;
75435;SDS011;64014;53.432;14.534;2023-07-13T11:56:16;3.22;;;1.38;;
75435;SDS011;64014;53.432;14.534;2023-07-13T11:58:43;3.70;;;0.73;;
75435;SDS011;64014;53.432;14.534;2023-07-13T12:01:15;3.17;;;0.82;;
75435;SDS011;64014;53.432;14.534;2023-07-13T12:03:43;1.80;;;0.55;;
75435;SDS011;64014;53.432;14.534;2023-07-13T12:08:38;4.40;;;1.42;;
75435;SDS011;64014;53.432;14.534;2023-07-13T12:11:11;3.72;;;0.73;;
75435;SDS011;64014;53.432;14.534;2023-07-13T12:13:39;2.10;;;0.70;;
75435;SDS011;64014;53.432;14.534;2023-07-13T12:16:22;3.92;;;0.98;;
75435;SDS011;64014;53.432;14.534;2023-07-13T12:18:51;4.97;;;2.53;;
75435;SDS011;64014;53.432;14.534;2023-07-13T12:23:44;3.30;;;0.85;;
75435;SDS011;64014;53.432;14.534;2023-07-13T12:26:13;3.35;;;0.45;;
75435;SDS011;64014;53.432;14.534;2023-07-13T12:28:45;2.42;;;0.65;;
75435;SDS011;64014;53.432;14.534;2023-07-13T12:34:00;4.28;;;0.52;;
75435;SDS011;64014;53.432;14.534;2023-07-13T12:36:26;4.53;;;1.05;;
75435;SDS011;64014;53.432;14.534;2023-07-13T12:38:56;2.22;;;0.63;;
75435;SDS011;64014;53.432;14.534;2023-07-13T12:41:22;2.03;;;1.15;;
75435;SDS011;64014;53.432;14.534;2023-07-13T12:43:48;2.42;;;0.85;;
75435;SDS011;64014;53.432;14.534;2023-07-13T12:46:19;4.03;;;0.73;;
75435;SDS011;64014;53.432;14.534;2023-07-13T12:48:48;2.08;;;0.77;;
75435;SDS011;64014;53.432;14.534;2023-07-13T12:51:14;2.67;;;0.93;;
75435;SDS011;64014;53.432;14.534;2023-07-13T12:53:43;3.17;;;0.63;;
75435;SDS011;64014;53.432;14.534;2023-07-13T12:56:13;3.15;;;1.95;;
75435;SDS011;64014;53.432;14.534;2023-07-13T12:58:42;2.53;;;0.80;;
75435;SDS011;64014;53.432;14.534;2023-07-13T13:01:11;3.28;;;0.90;;
75435;SDS011;64014;53.432;14.534;2023-07-13T13:03:39;4.10;;;0.95;;
75435;SDS011;64014;53.432;14.534;2023-07-13T13:08:33;3.75;;;1.58;;
75435;SDS011;64014;53.432;14.534;2023-07-13T13:11:00;2.58;;;0.88;;
75435;SDS011;64014;53.432;14.534;2023-07-13T13:13:26;4.35;;;1.23;;
75435;SDS011;64014;53.432;14.534;2023-07-13T13:15:53;4.00;;;0.75;;
75435;SDS011;64014;53.432;14.534;2023-07-13T13:18:20;4.70;;;0.93;;
75435;SDS011;64014;53.432;14.534;2023-07-13T13:20:47;4.60;;;2.35;;
75435;SDS011;64014;53.432;14.534;2023-07-13T13:23:14;2.13;;;1.65;;
75435;SDS011;64014;53.432;14.534;2023-07-13T13:25:42;2.72;;;1.95;;
75435;SDS011;64014;53.432;14.534;2023-07-13T13:28:12;2.65;;;0.93;;
75435;SDS011;64014;53.432;14.534;2023-07-13T13:30:40;5.35;;;0.98;;
75435;SDS011;64014;53.432;14.534;2023-07-13T13:33:08;3.08;;;1.55;;
75435;SDS011;64014;53.432;14.534;2023-07-13T13:35:34;3.35;;;0.85;;
75435;SDS011;64014;53.432;14.534;2023-07-13T13:38:01;2.30;;;1.70;;
75435;SDS011;64014;53.432;14.534;2023-07-13T13:40:27;4.43;;;0.70;;
75435;SDS011;64014;53.432;14.534;2023-07-13T13:42:53;4.28;;;1.20;;
75435;SDS011;64014;53.432;14.534;2023-07-13T13:45:21;3.75;;;0.93;;
75435;SDS011;64014;53.432;14.534;2023-07-13T13:47:49;4.68;;;1.00;;
75435;SDS011;64014;53.432;14.534;2023-07-13T13:50:16;2.72;;;1.05;;
75435;SDS011;64014;53.432;14.534;2023-07-13T13:52:42;4.40;;;0.73;;
75435;SDS011;64014;53.432;14.534;2023-07-13T13:55:15;2.30;;;1.02;;
75435;SDS011;64014;53.432;14.534;2023-07-13T13:57:42;4.85;;;0.85;;
75435;SDS011;64014;53.432;14.534;2023-07-13T14:00:09;3.45;;;0.65;;
75435;SDS011;64014;53.432;14.534;2023-07-13T14:02:39;3.50;;;0.50;;
75435;SDS011;64014;53.432;14.534;2023-07-13T14:05:06;4.10;;;1.50;;
75435;SDS011;64014;53.432;14.534;2023-07-13T14:07:32;3.75;;;0.60;;
75435;SDS011;64014;53.432;14.534;2023-07-13T14:09:59;3.72;;;0.98;;
75435;SDS011;64014;53.432;14.534;2023-07-13T14:12:29;2.17;;;1.02;;
75435;SDS011;64014;53.432;14.534;2023-07-13T14:14:55;2.65;;;0.85;;
75435;SDS011;64014;53.432;14.534;2023-07-13T14:19:50;3.03;;;0.93;;
75435;SDS011;64014;53.432;14.534;2023-07-13T14:22:21;2.45;;;0.80;;
75435;SDS011;64014;53.432;14.534;2023-07-13T14:24:47;7.28;;;5.13;;
75435;SDS011;64014;53.432;14.534;2023-07-13T14:27:14;3.08;;;1.15;;
75435;SDS011;64014;53.432;14.534;2023-07-13T14:29:40;2.72;;;0.85;;
75435;SDS011;64014;53.432;14.534;2023-07-13T14:32:15;2.90;;;1.38;;
75435;SDS011;64014;53.432;14.534;2023-07-13T14:34:42;2.92;;;0.98;;
75435;SDS011;64014;53.432;14.534;2023-07-13T14:37:12;3.70;;;1.08;;
75435;SDS011;64014;53.432;14.534;2023-07-13T14:39:39;4.22;;;0.75;;
75435;SDS011;64014;53.432;14.534;2023-07-13T14:42:07;2.60;;;0.50;;
75435;SDS011;64014;53.432;14.534;2023-07-13T14:44:34;4.22;;;0.65;;
75435;SDS011;64014;53.432;14.534;2023-07-13T14:47:02;3.78;;;0.77;;
75435;SDS011;64014;53.432;14.534;2023-07-13T14:51:55;3.00;;;0.80;;
75435;SDS011;64014;53.432;14.534;2023-07-13T14:54:22;1.73;;;0.93;;
75435;SDS011;64014;53.432;14.534;2023-07-13T14:56:49;3.55;;;0.73;;
75435;SDS011;64014;53.432;14.534;2023-07-13T14:59:15;2.80;;;0.50;;
75435;SDS011;64014;53.432;14.534;2023-07-13T15:01:44;1.88;;;0.75;;
75435;SDS011;64014;53.432;14.534;2023-07-13T15:04:10;3.10;;;0.98;;
75435;SDS011;64014;53.432;14.534;2023-07-13T15:09:40;3.15;;;1.08;;
75435;SDS011;64014;53.432;14.534;2023-07-13T15:12:06;3.45;;;1.13;;
75435;SDS011;64014;53.432;14.534;2023-07-13T15:14:33;4.20;;;1.23;;
75435;SDS011;64014;53.432;14.534;2023-07-13T15:16:59;4.45;;;0.82;;
75435;SDS011;64014;53.432;14.534;2023-07-13T15:19:25;3.90;;;0.80;;
75435;SDS011;64014;53.432;14.534;2023-07-13T15:21:52;2.45;;;0.40;;
75435;SDS011;64014;53.432;14.534;2023-07-13T15:24:20;3.90;;;1.20;;
75435;SDS011;64014;53.432;14.534;2023-07-13T15:26:46;4.07;;;0.93;;
75435;SDS011;64014;53.432;14.534;2023-07-13T15:29:14;2.25;;;1.38;;
75435;SDS011;64014;53.432;14.534;2023-07-13T15:31:40;3.42;;;0.95;;
75435;SDS011;64014;53.432;14.534;2023-07-13T15:34:16;3.45;;;1.05;;
75435;SDS011;64014;53.432;14.534;2023-07-13T15:36:45;3.40;;;1.17;;
75435;SDS011;64014;53.432;14.534;2023-07-13T15:39:15;5.55;;;0.70;;
75435;SDS011;64014;53.432;14.534;2023-07-13T15:41:41;4.13;;;0.93;;